Drumbo, Canada
Current Conditions -  °F | °C
As of 10:00 PM on Sunday 23 Nov 2014 (Local Time) from CYKF Reporting Station
Broken Clouds Broken Clouds  
Wind Chill: 41°   Ceiling: 14000
Heat Index: 46°   Visibility: 9mi
Dew Point: 39°   Wind: 13mph
Humidity: 76%   Direction: 110°ESE
Pressure: 29.61"   Gusts: 18mph
Location:  43.23°N, 80.55°W
Report Text: CYKF 240300Z AUTO 11011G16KT 9SM BKN140 BKN160 08/04 A2961 RMK SLP031
Loading
Personal Weather Stations






























Interactive Weather Map New forecast layout! Learn more

10-Day Weather Forecast

Advertisements
Track Severe Weather on mobile